Time;durP1;ratioP1;P1;durP2;ratioP2;P2;SDS_P1;SDS_P2;PMS_P1;PMS_P2;Temp;Humidity;BMP_temperature;BMP_pressure;BME280_temperature;BME280_humidity;BME280_pressure;Samples;Min_cycle;Max_cycle;Signal;HPM_P1;HPM_P2
2022/04/04 00:01:48;;;;;;;5.97;3.77;;;;;;;18.17;49.56;100817.19;5032232;28;20951;-63
2022/04/04 00:04:14;;;;;;;8.97;4.43;;;;;;;18.17;49.71;100811.47;5031920;28;20207;-63
2022/04/04 00:06:40;;;;;;;7.80;4.10;;;;;;;18.14;49.69;100806.50;5031141;28;20430;-63
2022/04/04 00:09:05;;;;;;;5.53;3.60;;;;;;;18.14;49.95;100809.38;5032362;28;20175;-63
2022/04/04 00:11:30;;;;;;;6.40;3.90;;;;;;;18.14;49.77;100815.06;5032380;28;20188;-63
2022/04/04 00:13:56;;;;;;;5.57;3.70;;;;;;;18.09;49.91;100808.78;5030910;28;20192;-63
2022/04/04 00:16:21;;;;;;;5.63;3.60;;;;;;;18.13;49.50;100816.28;5013655;28;20196;-63
2022/04/04 00:18:47;;;;;;;7.03;3.53;;;;;;;18.14;49.96;100814.22;5032002;28;20180;-63
2022/04/04 00:21:12;;;;;;;6.23;3.70;;;;;;;18.14;49.59;100817.09;5031210;28;20176;-63
2022/04/04 00:23:38;;;;;;;9.03;4.77;;;;;;;18.06;50.25;100815.25;5031701;28;20185;-63
2022/04/04 00:26:04;;;;;;;6.43;3.80;;;;;;;18.07;49.79;100816.91;5031564;28;20655;-63
2022/04/04 00:28:30;;;;;;;6.27;3.60;;;;;;;18.06;50.00;100818.91;5031532;28;20234;-63
2022/04/04 00:30:55;;;;;;;4.83;3.40;;;;;;;18.07;50.08;100816.91;5031110;28;20465;-63
2022/04/04 00:33:20;;;;;;;5.17;3.60;;;;;;;18.08;50.02;100810.84;5031983;28;20176;-63
2022/04/04 00:35:46;;;;;;;5.50;4.00;;;;;;;18.07;49.82;100817.72;5031603;28;20188;-63
2022/04/04 00:38:12;;;;;;;6.40;4.23;;;;;;;18.09;49.95;100812.50;5031909;28;20191;-63
2022/04/04 00:40:37;;;;;;;5.70;3.67;;;;;;;18.16;49.50;100809.00;5031132;28;20187;-63
2022/04/04 00:43:03;;;;;;;6.07;3.60;;;;;;;18.10;49.87;100808.44;5031288;28;20180;-63
2022/04/04 00:45:28;;;;;;;8.20;4.07;;;;;;;18.15;49.64;100801.59;5031399;28;20207;-63
2022/04/04 00:47:54;;;;;;;6.93;3.70;;;;;;;18.16;49.80;100806.16;5031551;28;20241;-63
2022/04/04 00:50:19;;;;;;;5.53;3.30;;;;;;;18.15;50.12;100801.59;5031544;28;20217;-63
2022/04/04 00:52:44;;;;;;;6.10;3.73;;;;;;;18.16;49.93;100806.97;5031637;28;20180;-63
2022/04/04 00:55:10;;;;;;;5.53;3.40;;;;;;;18.18;49.57;100792.31;5031576;28;20579;-63
2022/04/04 00:57:38;;;;;;;5.40;3.50;;;;;;;18.13;49.90;100795.44;5030858;28;20176;-63
2022/04/04 01:00:05;;;;;;;6.90;3.43;;;;;;;18.10;50.19;100799.00;5031167;28;20180;-63
2022/04/04 01:02:30;;;;;;;5.80;3.67;;;;;;;18.15;50.19;100795.88;5030807;28;20477;-63
2022/04/04 01:04:55;;;;;;;5.63;3.20;;;;;;;18.20;49.99;100784.19;5031177;28;20851;-63
2022/04/04 01:07:21;;;;;;;5.73;3.70;;;;;;;18.20;49.60;100787.88;5030119;28;20200;-63
2022/04/04 01:09:48;;;;;;;6.67;3.70;;;;;;;18.21;49.96;100795.25;5030379;28;20238;-63
2022/04/04 01:12:14;;;;;;;5.10;3.60;;;;;;;18.18;50.34;100786.59;5031385;28;20168;-63
2022/04/04 01:14:48;;;;;;;6.50;3.50;;;;;;;18.17;49.96;100788.59;5013710;28;20443;-63
2022/04/04 01:17:16;;;;;;;6.67;3.73;;;;;;;18.13;49.91;100779.13;5029973;28;20169;-63
2022/04/04 01:19:42;;;;;;;4.33;2.77;;;;;;;18.16;49.74;100792.66;5030621;28;20569;-63
2022/04/04 01:22:09;;;;;;;4.97;3.00;;;;;;;18.11;50.33;100775.78;5031252;28;20506;-63
2022/04/04 01:24:37;;;;;;;7.37;3.50;;;;;;;18.13;50.02;100775.44;5030616;28;20626;-63
2022/04/04 01:27:02;;;;;;;5.53;3.67;;;;;;;18.11;50.28;100772.94;5030621;28;20419;-63
2022/04/04 01:29:28;;;;;;;4.33;2.83;;;;;;;18.18;49.78;100770.28;5031414;28;20442;-63
2022/04/04 01:31:54;;;;;;;6.43;3.70;;;;;;;18.12;50.01;100762.34;5030946;28;20256;-63
2022/04/04 01:34:20;;;;;;;8.13;4.00;;;;;;;18.07;50.30;100760.56;5030479;28;20176;-63
2022/04/04 01:36:46;;;;;;;4.60;2.83;;;;;;;18.06;50.06;100753.19;5030947;28;20431;-63
2022/04/04 01:39:11;;;;;;;4.93;2.90;;;;;;;18.11;49.94;100755.78;5030916;28;20465;-63
2022/04/04 01:41:37;;;;;;;4.70;3.00;;;;;;;18.06;50.17;100761.78;5032354;28;20510;-63
2022/04/04 01:44:03;;;;;;;4.80;3.70;;;;;;;18.08;50.09;100753.69;5034797;28;20627;-63
2022/04/04 01:46:28;;;;;;;5.53;3.40;;;;;;;18.04;50.29;100749.06;5034714;28;20204;-63
2022/04/04 01:48:54;;;;;;;5.90;3.07;;;;;;;18.07;50.24;100749.16;5035028;28;20524;-63
2022/04/04 01:51:20;;;;;;;4.83;3.13;;;;;;;18.01;50.25;100739.19;5034300;28;20259;-63
2022/04/04 01:53:46;;;;;;;4.87;3.20;;;;;;;18.04;50.43;100747.03;5034398;28;20411;-63
2022/04/04 01:56:11;;;;;;;5.50;3.03;;;;;;;18.00;50.34;100751.81;5016642;28;20173;-63
2022/04/04 01:58:37;;;;;;;6.20;3.10;;;;;;;18.04;50.24;100755.59;5034669;28;20192;-63
2022/04/04 02:01:08;;;;;;;5.57;3.10;;;;;;;18.06;49.96;100750.34;5016275;28;20184;-63
2022/04/04 02:03:33;;;;;;;5.90;3.53;;;;;;;18.06;49.96;100744.63;5018044;28;20191;-63
2022/04/04 02:06:00;;;;;;;5.90;3.03;;;;;;;18.05;50.25;100756.41;5034459;28;20532;-63
2022/04/04 02:08:26;;;;;;;5.93;3.13;;;;;;;18.08;50.38;100756.53;5034546;28;20176;-63
2022/04/04 02:10:51;;;;;;;6.03;3.57;;;;;;;18.08;49.98;100747.13;5033816;28;20422;-63
2022/04/04 02:13:16;;;;;;;5.77;3.10;;;;;;;18.08;49.99;100753.69;5034026;28;20203;-63
2022/04/04 02:15:42;;;;;;;7.20;3.87;;;;;;;18.06;50.07;100747.50;5033898;28;20274;-63
2022/04/04 02:18:08;;;;;;;4.90;3.27;;;;;;;18.06;50.47;100741.78;5034197;28;20597;-63
2022/04/04 02:20:33;;;;;;;5.40;3.17;;;;;;;18.08;50.30;100742.25;5033607;28;20682;-63
2022/04/04 02:23:00;;;;;;;4.00;2.70;;;;;;;18.10;49.98;100739.84;5034396;28;20521;-63
2022/04/04 02:25:26;;;;;;;4.40;2.87;;;;;;;18.11;50.07;100735.78;5033288;28;20283;-63
2022/04/04 02:27:51;;;;;;;5.07;3.10;;;;;;;18.06;50.27;100736.06;5033904;28;20425;-63
2022/04/04 02:30:17;;;;;;;6.27;3.23;;;;;;;18.14;50.38;100737.94;5033888;28;20223;-63
2022/04/04 02:32:42;;;;;;;6.40;3.30;;;;;;;18.14;50.01;100722.78;5033348;28;20547;-63
2022/04/04 02:35:08;;;;;;;5.93;3.00;;;;;;;18.17;50.28;100731.44;5034109;28;20180;-63
2022/04/04 02:37:34;;;;;;;4.33;2.93;;;;;;;18.21;49.68;100723.81;5034376;28;20538;-63
2022/04/04 02:40:00;;;;;;;5.03;2.97;;;;;;;18.21;50.01;100720.94;5026471;28;20199;-63
2022/04/04 02:42:25;;;;;;;4.60;3.07;;;;;;;18.19;50.01;100722.53;5014358;28;20188;-63
2022/04/04 02:44:51;;;;;;;5.23;3.27;;;;;;;18.14;50.30;100714.22;5013737;28;20197;-63
2022/04/04 02:47:16;;;;;;;4.87;3.00;;;;;;;18.18;50.01;100712.28;5013390;28;20233;-63
2022/04/04 02:49:41;;;;;;;5.53;3.33;;;;;;;18.18;50.06;100718.00;5014142;28;20184;-63
2022/04/04 02:52:07;;;;;;;4.13;2.83;;;;;;;18.18;49.79;100716.00;5013443;28;20256;-63
2022/04/04 02:54:33;;;;;;;5.40;3.00;;;;;;;18.17;50.23;100724.94;5013514;28;20177;-63
2022/04/04 02:56:58;;;;;;;5.90;3.10;;;;;;;18.16;50.11;100721.22;5033009;28;20188;-63
2022/04/04 02:59:23;;;;;;;4.80;2.90;;;;;;;18.16;49.88;100718.38;5033617;28;20176;-63
2022/04/04 03:01:49;;;;;;;5.47;2.80;;;;;;;18.15;50.00;100719.56;5033708;28;20633;-63
2022/04/04 03:04:17;;;;;;;4.80;2.90;;;;;;;18.09;50.49;100711.63;5033560;28;20254;-63
2022/04/04 03:06:43;;;;;;;4.77;2.90;;;;;;;18.08;50.30;100712.84;5032778;28;20188;-63
2022/04/04 03:09:08;;;;;;;4.57;2.83;;;;;;;18.07;50.35;100712.00;5033039;28;20458;-63
2022/04/04 03:11:34;;;;;;;4.83;3.13;;;;;;;18.06;50.78;100721.78;5032153;28;20219;-63
2022/04/04 03:14:00;;;;;;;4.20;2.63;;;;;;;18.09;50.15;100715.34;5032254;28;20195;-63
2022/04/04 03:16:25;;;;;;;5.63;2.97;;;;;;;18.07;50.77;100720.56;5032970;28;20169;-63
2022/04/04 03:18:53;;;;;;;6.17;3.10;;;;;;;17.98;50.75;100717.09;5033024;28;20384;-63
2022/04/04 03:21:19;;;;;;;4.20;2.63;;;;;;;18.01;50.75;100716.34;5033308;28;20183;-63
2022/04/04 03:23:45;;;;;;;6.83;3.20;;;;;;;18.02;50.39;100715.13;5032089;28;20825;-63
2022/04/04 03:26:10;;;;;;;4.37;2.90;;;;;;;18.03;50.38;100713.97;5032146;28;20204;-63
2022/04/04 03:28:36;;;;;;;4.50;2.83;;;;;;;18.08;50.17;100721.41;5032631;28;20242;-63
2022/04/04 03:31:04;;;;;;;4.40;2.70;;;;;;;18.02;50.39;100712.28;5033230;28;20191;-63
2022/04/04 03:33:30;;;;;;;4.23;2.57;;;;;;;18.05;50.25;100713.56;5032715;28;20195;-63
2022/04/04 03:35:55;;;;;;;4.13;2.83;;;;;;;18.01;50.44;100715.53;5032848;28;20522;-63
2022/04/04 03:38:21;;;;;;;4.20;2.57;;;;;;;18.02;50.48;100714.31;5033077;28;20410;-63
2022/04/04 03:40:46;;;;;;;4.30;2.60;;;;;;;18.06;50.24;100715.25;5032906;28;20177;-63
2022/04/04 03:43:13;;;;;;;3.83;2.60;;;;;;;18.05;50.39;100711.56;5031461;28;20169;-63
2022/04/04 03:45:38;;;;;;;4.40;2.77;;;;;;;18.05;50.56;100717.25;5032614;28;20208;-63
2022/04/04 03:48:04;;;;;;;5.00;2.90;;;;;;;18.08;50.43;100718.56;5032495;28;20826;-63
2022/04/04 03:50:30;;;;;;;3.70;2.30;;;;;;;18.12;50.20;100719.50;5032295;28;20176;-63
2022/04/04 03:52:55;;;;;;;11.60;2.73;;;;;;;18.11;50.01;100715.78;5032534;28;20594;-63
2022/04/04 03:55:29;;;;;;;5.20;3.13;;;;;;;18.11;50.31;100715.78;5032905;28;20184;-63
2022/04/04 03:57:54;;;;;;;4.10;2.70;;;;;;;18.13;50.22;100712.56;5032594;28;20156;-63
2022/04/04 04:00:21;;;;;;;3.90;3.07;;;;;;;18.11;50.50;100720.69;5031990;28;20771;-63
2022/04/04 04:02:47;;;;;;;5.90;2.83;;;;;;;18.13;50.11;100713.41;5031989;28;20191;-63
2022/04/04 04:05:13;;;;;;;4.80;3.17;;;;;;;18.12;50.43;100710.91;5031510;28;20817;-63
2022/04/04 04:07:38;;;;;;;3.67;2.40;;;;;;;18.15;50.22;100715.88;5032197;28;20168;-63
2022/04/04 04:10:04;;;;;;;3.73;2.70;;;;;;;18.13;50.47;100704.84;5032354;28;20173;-63
2022/04/04 04:12:30;;;;;;;4.30;2.73;;;;;;;18.16;49.97;100706.13;5031827;28;20195;-63
2022/04/04 04:14:55;;;;;;;4.10;2.43;;;;;;;18.09;50.56;100700.22;5014450;28;20415;-63
2022/04/04 04:17:21;;;;;;;4.00;2.83;;;;;;;18.11;50.38;100698.66;5032003;28;20226;-63
2022/04/04 04:22:31;;;;;;;3.73;2.67;;;;;;;18.13;50.57;100696.25;5032341;28;21026;-63
2022/04/04 04:24:57;;;;;;;4.70;2.40;;;;;;;18.09;50.38;100694.50;5031393;28;20451;-63
2022/04/04 04:27:23;;;;;;;4.47;2.43;;;;;;;18.07;50.14;100696.91;5014230;28;20176;-63
2022/04/04 04:29:48;;;;;;;4.37;2.67;;;;;;;18.10;50.22;100696.16;5031761;28;20818;-63
2022/04/04 04:32:14;;;;;;;3.70;2.50;;;;;;;18.07;50.30;100697.72;5032035;28;20551;-63
2022/04/04 04:34:39;;;;;;;3.90;2.40;;;;;;;18.06;50.14;100701.78;5031301;28;20169;-63
2022/04/04 04:37:05;;;;;;;4.60;2.83;;;;;;;18.06;50.10;100700.97;5030902;28;20176;-63
2022/04/04 04:39:30;;;;;;;5.50;3.00;;;;;;;18.01;50.22;100710.63;5030991;28;20234;-63
2022/04/04 04:41:56;;;;;;;3.83;2.47;;;;;;;18.04;50.25;100707.03;5031766;28;20169;-63
2022/04/04 04:44:22;;;;;;;4.67;2.50;;;;;;;18.00;50.14;100706.13;5031801;28;20191;-63
2022/04/04 04:46:48;;;;;;;3.30;2.30;;;;;;;18.00;50.68;100711.81;5014157;28;20644;-63
2022/04/04 04:49:14;;;;;;;4.50;2.77;;;;;;;18.03;50.33;100711.09;5031360;28;20594;-63
2022/04/04 04:51:41;;;;;;;4.97;2.50;;;;;;;18.03;50.45;100708.25;5032176;28;20898;-63
2022/04/04 04:54:07;;;;;;;3.43;2.37;;;;;;;18.05;50.20;100699.28;5030890;28;20820;-63
2022/04/04 04:56:33;;;;;;;4.07;2.43;;;;;;;18.02;50.10;100700.03;5030463;28;20498;-63
2022/04/04 04:58:59;;;;;;;3.90;2.47;;;;;;;18.01;50.34;100698.38;4997785;28;20173;-63
2022/04/04 05:01:25;;;;;;;4.37;2.70;;;;;;;18.03;50.57;100696.81;5031747;28;20418;-63
2022/04/04 05:03:51;;;;;;;3.47;2.27;;;;;;;18.03;50.31;100691.09;5031473;28;20444;-63
2022/04/04 05:06:16;;;;;;;4.10;2.23;;;;;;;18.04;50.18;100692.75;5031490;28;20702;-63
2022/04/04 05:08:42;;;;;;;3.30;2.20;;;;;;;18.01;50.31;100687.78;5031260;28;20415;-63
2022/04/04 05:11:07;;;;;;;3.50;2.33;;;;;;;17.99;50.80;100689.34;5031189;28;20203;-63
2022/04/04 05:13:33;;;;;;;3.80;2.30;;;;;;;18.02;50.25;100686.56;5030566;28;20192;-63
2022/04/04 05:15:58;;;;;;;3.10;2.37;;;;;;;18.07;50.14;100686.28;5033389;28;20248;-63
2022/04/04 05:18:24;;;;;;;4.67;2.47;;;;;;;18.05;50.65;100679.28;5035573;28;20674;-63
2022/04/04 05:20:50;;;;;;;4.87;2.93;;;;;;;18.04;50.11;100680.50;5035053;28;20184;-63
2022/04/04 05:23:15;;;;;;;3.57;2.43;;;;;;;18.04;50.41;100686.19;5035493;28;20435;-63
2022/04/04 05:25:42;;;;;;;3.93;2.47;;;;;;;18.06;50.18;100673.22;5034796;28;20250;-63
2022/04/04 05:28:07;;;;;;;3.23;2.40;;;;;;;18.05;50.26;100680.13;5035356;28;20540;-63
2022/04/04 05:30:34;;;;;;;4.37;2.53;;;;;;;18.09;50.35;100688.78;5034192;28;20415;-63
2022/04/04 05:33:00;;;;;;;3.13;2.23;;;;;;;18.06;50.32;100689.53;5035105;28;20172;-63
2022/04/04 05:35:25;;;;;;;4.60;2.60;;;;;;;18.09;50.07;100691.63;5034806;28;20510;-63
2022/04/04 05:37:54;;;;;;;3.13;2.13;;;;;;;18.05;50.45;100697.25;5035074;28;20431;-63
2022/04/04 05:40:21;;;;;;;3.80;2.27;;;;;;;18.03;50.39;100696.81;5035341;28;20186;-63
2022/04/04 05:42:47;;;;;;;3.43;2.27;;;;;;;18.09;50.06;100694.50;5033191;28;20472;-63
2022/04/04 05:45:12;;;;;;;3.07;1.93;;;;;;;18.10;50.32;100701.88;5033619;28;20872;-63
2022/04/04 05:47:38;;;;;;;3.43;2.50;;;;;;;18.05;50.33;100691.56;5034390;28;20573;-63
2022/04/04 05:50:04;;;;;;;4.70;2.47;;;;;;;18.03;50.17;100702.53;5034119;28;20584;-63
2022/04/04 05:52:30;;;;;;;3.80;2.30;;;;;;;18.01;50.77;100702.06;5035113;28;20261;-63
2022/04/04 05:54:57;;;;;;;4.17;2.53;;;;;;;18.02;50.17;100703.72;5035002;28;20411;-63
2022/04/04 05:57:30;;;;;;;4.57;2.57;;;;;;;18.02;50.11;100709.41;5034798;28;20635;-63
2022/04/04 05:59:56;;;;;;;4.17;2.47;;;;;;;18.02;50.61;100708.59;5034793;28;20774;-63
2022/04/04 06:02:22;;;;;;;4.00;2.23;;;;;;;18.08;50.20;100704.28;5017350;28;20421;-63
2022/04/04 06:04:48;;;;;;;3.20;2.23;;;;;;;18.03;50.39;100711.09;5034467;28;20201;-63
2022/04/04 06:07:14;;;;;;;4.67;2.53;;;;;;;18.02;50.39;100706.56;5034013;28;20993;-63
2022/04/04 06:09:40;;;;;;;3.30;2.20;;;;;;;18.05;50.10;100711.56;5033133;28;20426;-63
2022/04/04 06:12:06;;;;;;;4.50;2.53;;;;;;;18.04;50.23;100703.34;5034837;28;20180;-63
2022/04/04 06:14:31;;;;;;;3.87;2.13;;;;;;;18.06;50.13;100704.63;5034599;28;20898;-63
2022/04/04 06:16:56;;;;;;;3.20;2.30;;;;;;;18.01;50.16;100699.19;5034575;28;20588;-63
2022/04/04 06:19:22;;;;;;;4.37;2.60;;;;;;;18.00;50.36;100703.25;5034235;28;20180;-63
2022/04/04 06:21:48;;;;;;;3.10;2.10;;;;;;;17.99;50.50;100695.03;5034648;28;20185;-63
2022/04/04 06:24:13;;;;;;;3.10;2.03;;;;;;;18.03;50.22;100701.69;5033655;28;20183;-63
2022/04/04 06:26:39;;;;;;;3.43;2.23;;;;;;;18.03;50.31;100701.69;5032910;28;20282;-63
2022/04/04 06:29:09;;;;;;;3.60;2.37;;;;;;;18.06;49.88;100696.06;5031456;28;20208;-63
2022/04/04 06:31:35;;;;;;;3.23;2.33;;;;;;;18.05;50.03;100697.25;5034238;28;20415;-63
2022/04/04 06:34:00;;;;;;;3.73;2.60;;;;;;;18.06;50.15;100698.09;5034143;28;20926;-63
2022/04/04 06:36:26;;;;;;;3.93;2.27;;;;;;;18.09;50.18;100692.47;5034165;28;20246;-63
2022/04/04 06:38:52;;;;;;;3.40;2.50;;;;;;;18.07;50.40;100700.56;5032506;28;20191;-63
2022/04/04 06:41:18;;;;;;;3.77;2.10;;;;;;;18.06;50.41;100693.22;5032982;28;20640;-63
2022/04/04 06:43:43;;;;;;;4.70;2.47;;;;;;;18.14;50.05;100692.22;5034294;28;20203;-63
2022/04/04 06:46:09;;;;;;;2.90;2.10;;;;;;;18.08;49.87;100695.69;5032501;28;21229;-63
2022/04/04 06:48:34;;;;;;;3.13;2.10;;;;;;;18.08;50.20;100704.28;5033391;28;20604;-63
2022/04/04 06:51:01;;;;;;;4.03;2.33;;;;;;;18.12;50.08;100696.63;5033762;28;20222;-63
2022/04/04 06:53:26;;;;;;;3.53;2.40;;;;;;;18.13;49.74;100690.56;5034062;28;20210;-63
2022/04/04 06:55:52;;;;;;;3.97;2.30;;;;;;;18.10;50.03;100691.28;5015980;28;20412;-63
2022/04/04 06:58:17;;;;;;;4.67;2.40;;;;;;;18.13;50.29;100693.41;5032962;28;20196;-63
2022/04/04 07:00:44;;;;;;;3.60;2.17;;;;;;;18.12;49.79;100694.59;5033702;28;20172;-63
2022/04/04 07:03:10;;;;;;;3.40;2.30;;;;;;;18.07;50.12;100692.00;5032797;28;20176;-63
2022/04/04 07:05:36;;;;;;;3.43;2.23;;;;;;;18.04;50.28;100692.75;5031764;28;20470;-63
2022/04/04 07:08:01;;;;;;;3.50;2.10;;;;;;;18.13;50.12;100690.56;5033286;28;20185;-63
2022/04/04 07:10:27;;;;;;;3.50;2.23;;;;;;;18.10;50.35;100684.72;5033439;28;20180;-63
2022/04/04 07:12:52;;;;;;;3.90;2.20;;;;;;;18.05;50.21;100688.69;5032947;28;20278;-63
2022/04/04 07:15:18;;;;;;;4.90;2.57;;;;;;;18.04;50.48;100687.03;5033084;28;20188;-63
2022/04/04 07:17:43;;;;;;;4.13;2.37;;;;;;;18.03;50.06;100688.25;5032785;28;20181;-63
2022/04/04 07:20:09;;;;;;;3.20;2.03;;;;;;;18.05;50.33;100688.69;5033052;28;20172;-63
2022/04/04 07:22:39;;;;;;;3.33;2.27;;;;;;;18.08;49.81;100693.69;5033406;28;20172;-63
2022/04/04 07:25:07;;;;;;;3.40;2.10;;;;;;;18.04;50.14;100692.75;5031503;28;20632;-63
2022/04/04 07:27:32;;;;;;;3.77;2.17;;;;;;;18.03;50.13;100679.69;5032388;28;20426;-63
2022/04/04 07:29:58;;;;;;;3.73;2.20;;;;;;;18.07;49.82;100679.75;5014554;28;20423;-63
2022/04/04 07:32:23;;;;;;;5.47;2.70;;;;;;;18.05;50.10;100676.44;5031766;28;20187;-63
2022/04/04 07:34:49;;;;;;;3.43;2.10;;;;;;;18.08;49.87;100678.56;5032522;28;20173;-63
2022/04/04 07:37:14;;;;;;;3.40;2.20;;;;;;;18.05;49.99;100674.41;5032675;28;20187;-63
2022/04/04 07:39:40;;;;;;;3.33;2.03;;;;;;;18.02;49.95;100672.28;5024104;28;20639;-63
2022/04/04 07:42:06;;;;;;;3.07;2.00;;;;;;;18.02;49.89;100680.03;5032407;28;20192;-63
2022/04/04 07:44:31;;;;;;;3.57;2.10;;;;;;;18.03;50.18;100675.97;5032159;28;20180;-63
2022/04/04 07:46:57;;;;;;;3.53;2.10;;;;;;;18.06;50.10;100675.25;5031217;28;20231;-63
2022/04/04 07:49:23;;;;;;;3.93;2.37;;;;;;;18.06;49.83;100675.25;5032499;28;20160;-63
2022/04/04 07:51:48;;;;;;;3.00;2.07;;;;;;;18.02;50.19;100672.28;5032705;28;20177;-63
2022/04/04 07:54:14;;;;;;;3.10;2.00;;;;;;;18.03;50.12;100665.41;5032417;28;20177;-63
2022/04/04 07:56:40;;;;;;;4.80;2.30;;;;;;;18.04;49.90;100667.03;5032172;28;20924;-63
2022/04/04 07:59:05;;;;;;;4.30;1.90;;;;;;;18.04;49.95;100661.31;5032609;28;20616;-63
2022/04/04 08:01:31;;;;;;;3.60;2.40;;;;;;;18.02;50.33;100660.84;5032367;28;20183;-63
2022/04/04 08:03:56;;;;;;;3.47;1.97;;;;;;;18.00;50.08;100656.72;5032691;28;20180;-63
2022/04/04 08:06:22;;;;;;;3.50;2.53;;;;;;;18.05;50.13;100648.69;5032265;28;20569;-63
2022/04/04 08:08:47;;;;;;;2.80;2.13;;;;;;;18.03;49.83;100645.41;5031115;28;20176;-63
2022/04/04 08:11:13;;;;;;;2.73;1.90;;;;;;;18.02;50.10;100640.84;5030298;28;20190;-63
2022/04/04 08:13:43;;;;;;;2.90;1.80;;;;;;;18.05;49.60;100642.16;5031963;28;20242;-63
2022/04/04 08:16:09;;;;;;;4.00;2.00;;;;;;;17.97;50.58;100644.00;5031825;28;20223;-63
2022/04/04 08:18:34;;;;;;;2.97;1.70;;;;;;;17.94;50.48;100644.75;5032579;28;20426;-63
2022/04/04 08:21:00;;;;;;;3.33;2.30;;;;;;;18.01;49.87;100633.50;5031896;28;20184;-63
2022/04/04 08:23:29;;;;;;;4.03;2.40;;;;;;;18.02;50.08;100638.00;5031798;28;20234;-63
2022/04/04 08:25:56;;;;;;;2.67;1.80;;;;;;;17.99;50.32;100635.91;5031483;28;20204;-62
2022/04/04 08:28:22;;;;;;;4.30;2.40;;;;;;;18.03;50.33;100636.81;5031313;28;20423;-62
2022/04/04 08:30:47;;;;;;;3.60;2.23;;;;;;;18.00;50.43;100628.97;5031803;28;20419;-62
2022/04/04 08:33:13;;;;;;;4.03;2.23;;;;;;;17.99;49.86;100632.19;5030144;28;20495;-62
2022/04/04 08:35:38;;;;;;;3.20;2.07;;;;;;;17.95;50.33;100623.53;5030284;28;20180;-62
2022/04/04 08:38:04;;;;;;;2.87;1.93;;;;;;;17.98;50.08;100625.69;5031688;28;20183;-62
2022/04/04 08:40:30;;;;;;;3.27;2.20;;;;;;;17.95;50.36;100622.69;5032095;28;20546;-62
2022/04/04 08:42:55;;;;;;;3.33;2.10;;;;;;;17.98;50.16;100631.38;5031931;28;20415;-62
2022/04/04 08:45:20;;;;;;;3.30;2.03;;;;;;;17.99;50.02;100621.63;5013738;28;20211;-62
2022/04/04 08:47:46;;;;;;;2.80;1.60;;;;;;;18.02;49.99;100612.28;5031399;28;20520;-62
2022/04/04 08:50:12;;;;;;;3.40;2.17;;;;;;;18.02;50.23;100614.34;5030992;28;20691;-63
2022/04/04 08:52:38;;;;;;;4.07;2.37;;;;;;;18.02;50.06;100606.56;5031231;28;20275;-63
2022/04/04 08:55:04;;;;;;;2.80;1.77;;;;;;;17.99;50.23;100603.63;5030784;28;20427;-63
2022/04/04 08:57:30;;;;;;;3.17;1.90;;;;;;;18.03;49.86;100593.13;5030928;28;20215;-63
2022/04/04 08:59:55;;;;;;;2.83;1.70;;;;;;;18.05;49.53;100590.72;5030505;28;20200;-63
2022/04/04 09:02:21;;;;;;;3.20;1.93;;;;;;;18.03;49.96;100590.28;5031390;28;20624;-63
2022/04/04 09:04:52;;;;;;;3.83;2.30;;;;;;;18.05;50.02;100597.28;5031200;28;20192;-63
2022/04/04 09:07:19;;;;;;;3.50;2.50;;;;;;;18.02;50.16;100586.56;5031267;28;20219;-63
2022/04/04 09:09:50;;;;;;;3.20;2.13;;;;;;;18.04;50.01;100583.34;5030899;28;20482;-63
2022/04/04 09:12:18;;;;;;;3.10;1.87;;;;;;;18.01;49.96;100578.41;5030935;28;20430;-63
2022/04/04 09:14:46;;;;;;;3.43;2.10;;;;;;;18.05;49.86;100579.28;5031145;28;20905;-63
2022/04/04 09:17:12;;;;;;;2.57;2.00;;;;;;;18.06;49.86;100573.22;5031700;28;20838;-63
2022/04/04 09:19:38;;;;;;;2.90;1.80;;;;;;;18.05;49.73;100565.00;5030812;28;20415;-63
2022/04/04 09:22:08;;;;;;;2.90;1.90;;;;;;;18.04;49.90;100564.19;5029458;28;20886;-63
2022/04/04 09:24:48;;;;;;;2.80;1.80;;;;;;;18.05;49.63;100557.28;5013252;28;20176;-63
2022/04/04 09:27:30;;;;;;;3.10;2.10;;;;;;;18.04;49.73;100552.78;5031362;28;20537;-63
2022/04/04 09:29:56;;;;;;;3.07;2.00;;;;;;;18.02;50.22;100549.44;5031277;28;20917;-63
2022/04/04 09:32:23;;;;;;;3.30;2.17;;;;;;;18.02;49.93;100545.78;5030910;28;20399;-63
2022/04/04 09:35:08;;;;;;;3.40;2.17;;;;;;;17.99;49.79;100544.47;5031226;28;20472;-63
2022/04/04 09:37:34;;;;;;;2.90;1.87;;;;;;;18.00;49.89;100546.13;5029104;28;20932;-63
2022/04/04 09:40:14;;;;;;;3.17;2.07;;;;;;;18.00;49.93;100534.72;5030897;28;20506;-63
2022/04/04 09:42:40;;;;;;;6.30;2.13;;;;;;;17.98;50.46;100542.00;5030867;28;20180;-63
2022/04/04 09:45:10;;;;;;;3.03;1.80;;;;;;;18.01;50.00;100524.94;5031304;28;20470;-63
2022/04/04 09:47:44;;;;;;;3.73;2.30;;;;;;;18.00;50.17;100536.72;5029464;28;20223;-62
2022/04/04 09:50:10;;;;;;;2.97;2.00;;;;;;;18.00;49.63;100526.13;5031432;28;20449;-63
2022/04/04 09:52:51;;;;;;;4.73;2.07;;;;;;;17.99;49.65;100513.06;5030848;28;20938;-63
2022/04/04 09:55:30;;;;;;;3.17;1.90;;;;;;;17.96;50.06;100515.84;5030623;28;20182;-63
2022/04/04 09:57:59;;;;;;;2.90;1.90;;;;;;;17.96;50.01;100496.66;5030815;28;20426;-63
2022/04/04 10:00:26;;;;;;;3.47;2.00;;;;;;;17.97;49.84;100504.00;5030954;28;20942;-63
2022/04/04 10:02:54;;;;;;;3.87;2.30;;;;;;;18.01;49.68;100509.84;5032327;28;20506;-63
2022/04/04 10:05:19;;;;;;;3.60;1.90;;;;;;;18.00;49.77;100503.28;5034500;28;20721;-63
2022/04/04 10:07:45;;;;;;;3.20;1.90;;;;;;;18.01;50.02;100499.22;5016195;28;20415;-62
2022/04/04 10:10:11;;;;;;;3.03;1.83;;;;;;;18.03;49.88;100496.84;5033120;28;20177;-63
2022/04/04 10:12:36;;;;;;;3.20;2.10;;;;;;;18.00;49.88;100493.88;5034110;28;20176;-62
2022/04/04 10:15:03;;;;;;;2.83;1.90;;;;;;;17.98;50.05;100482.00;5034263;28;20185;-61
2022/04/04 10:17:29;;;;;;;2.80;1.67;;;;;;;18.03;49.82;100471.13;5034036;28;20180;-61
2022/04/04 10:19:55;;;;;;;3.30;2.17;;;;;;;18.02;49.50;100472.31;5034480;28;20442;-62
2022/04/04 10:22:20;;;;;;;4.70;1.67;;;;;;;17.98;49.74;100470.56;5033564;28;20407;-62
2022/04/04 10:24:46;;;;;;;3.20;1.90;;;;;;;17.99;49.85;100466.50;5033674;28;20184;-61
2022/04/04 10:27:13;;;;;;;3.57;2.00;;;;;;;18.01;49.52;100464.13;5030176;28;20599;-62
2022/04/04 10:29:42;;;;;;;3.20;1.70;;;;;;;18.00;49.70;100446.16;5014339;28;20207;-61
2022/04/04 10:32:21;;;;;;;3.30;2.10;;;;;;;17.99;49.89;100449.38;5015123;28;20474;-61
2022/04/04 10:34:46;;;;;;;3.30;1.87;;;;;;;18.03;49.32;100439.69;5032804;28;20480;-62
2022/04/04 10:37:11;;;;;;;3.43;2.47;;;;;;;18.01;49.71;100441.28;5034114;28;20930;-62
2022/04/04 10:39:47;;;;;;;3.10;2.27;;;;;;;18.04;49.59;100437.66;5032681;28;20173;-63
2022/04/04 10:42:26;;;;;;;4.43;2.07;;;;;;;18.06;49.87;100421.78;5033201;28;20195;-63
2022/04/04 10:45:08;;;;;;;2.43;1.73;;;;;;;18.04;49.62;100427.06;5033753;28;20455;-63
2022/04/04 10:47:38;;;;;;;3.10;1.93;;;;;;;18.05;49.50;100411.56;5033854;28;20881;-62
2022/04/04 10:50:23;;;;;;;2.80;1.80;;;;;;;18.03;49.62;100416.84;5016635;28;20980;-63
2022/04/04 10:52:50;;;;;;;2.73;1.50;;;;;;;18.04;49.64;100407.06;5033902;28;20427;-62
2022/04/04 10:55:34;;;;;;;3.77;2.10;;;;;;;18.02;49.52;100400.88;5033474;28;20454;-62
2022/04/04 10:58:19;;;;;;;3.13;2.20;;;;;;;18.04;49.62;100398.50;5014369;28;20899;-62
2022/04/04 11:01:14;;;;;;;2.70;1.67;;;;;;;18.06;49.48;100396.09;5012896;28;20426;-62
2022/04/04 11:03:40;;;;;;;6.20;1.77;;;;;;;18.01;49.46;100390.66;5031657;28;20517;-62
2022/04/04 11:09:15;;;;;;;3.53;2.17;;;;;;;18.03;49.89;100384.59;5033611;28;20449;-62
2022/04/04 11:11:54;;;;;;;10.30;1.90;;;;;;;18.05;49.56;100374.44;5033578;28;20480;-62
2022/04/04 11:14:29;;;;;;;3.10;1.80;;;;;;;18.07;49.17;100374.88;5032360;28;20411;-62
2022/04/04 11:17:06;;;;;;;11.73;2.10;;;;;;;18.10;49.51;100379.00;5033281;28;20855;-62
2022/04/04 11:19:48;;;;;;;3.27;2.30;;;;;;;18.28;50.01;100363.06;5032749;28;20918;-62
2022/04/04 11:22:18;;;;;;;101.23;51.80;;;;;;;18.42;49.29;100366.25;5033675;28;20445;-62
2022/04/04 11:24:44;;;;;;;765.03;264.47;;;;;;;18.74;53.62;100364.81;5032936;28;20418;-62
2022/04/04 11:27:10;;;;;;;771.00;390.20;;;;;;;19.05;51.84;100350.22;5015232;28;20434;-62
2022/04/04 11:29:38;;;;;;;762.33;352.17;;;;;;;18.86;52.08;100356.06;5033070;28;20719;-62